createdAt,value
2022-09-28T00:01:07.683Z,99486.13
2022-09-28T00:03:35.922Z,99491.19
2022-09-28T00:06:05.057Z,99486.66
2022-09-28T00:08:33.133Z,99481.22
2022-09-28T00:11:00.811Z,99471.41
2022-09-28T00:13:29.598Z,99488.47
2022-09-28T00:16:04.201Z,99486.56
2022-09-28T00:18:32.705Z,99496.22
2022-09-28T00:21:05.714Z,99494.94
2022-09-28T00:23:34.457Z,99487.09
2022-09-28T00:26:05.740Z,99480.56
2022-09-28T00:28:33.817Z,99485.09
2022-09-28T00:31:03.081Z,99466.53
2022-09-28T00:33:30.845Z,99480.94
2022-09-28T00:35:59.233Z,99471.19
2022-09-28T00:38:28.648Z,99485.06
2022-09-28T00:40:56.754Z,99481.78
2022-09-28T00:43:25.442Z,99482.13
2022-09-28T00:45:59.920Z,99480.13
2022-09-28T00:48:33.375Z,99460.59
2022-09-28T00:51:04.677Z,99458.06
2022-09-28T00:53:36.523Z,99465.81
2022-09-28T00:56:09.170Z,99464.03
2022-09-28T00:58:41.951Z,99459.34
2022-09-28T01:01:09.791Z,99463.13
2022-09-28T01:03:41.333Z,99464.59
2022-09-28T01:06:10.469Z,99456.44
2022-09-28T01:08:40.442Z,99463.69
2022-09-28T01:11:08.262Z,99433.88
2022-09-28T01:13:36.067Z,99461.56
2022-09-28T01:16:13.158Z,99457.88
2022-09-28T01:18:53.710Z,99467.41
2022-09-28T01:21:23.267Z,99459.47
2022-09-28T01:24:36.045Z,99458.28
2022-09-28T01:27:13.977Z,99453.16
2022-09-28T01:29:58.070Z,99458.44
2022-09-28T01:32:36.668Z,99454.66
2022-09-28T01:35:08.844Z,99438.25
2022-09-28T01:37:43.449Z,99446.84
2022-09-28T01:40:13.190Z,99424.38
2022-09-28T01:42:46.882Z,99453.66
2022-09-28T01:45:21.644Z,99468.31
2022-09-28T01:47:51.152Z,99409.53
2022-09-28T01:50:23.719Z,99443.00
2022-09-28T01:52:55.745Z,99433.88
2022-09-28T01:55:30.823Z,99443.16
2022-09-28T01:58:04.390Z,99438.88
2022-09-28T02:00:33.512Z,99438.28
2022-09-28T02:03:06.830Z,99400.63
2022-09-28T02:05:36.800Z,99427.31
2022-09-28T02:08:10.059Z,99420.78
2022-09-28T02:10:43.501Z,99429.66
2022-09-28T02:13:17.377Z,99337.75
2022-09-28T02:15:52.681Z,99426.91
2022-09-28T02:18:20.530Z,99419.44
2022-09-28T02:20:55.150Z,99409.47
2022-09-28T02:23:24.487Z,99417.78
2022-09-28T02:25:59.906Z,99408.59
2022-09-28T02:28:29.182Z,99404.94
2022-09-28T02:30:57.086Z,99408.47
2022-09-28T02:33:30.321Z,99411.63
2022-09-28T02:35:59.460Z,99404.75
2022-09-28T02:38:27.078Z,99391.28
2022-09-28T02:41:02.585Z,99405.28
2022-09-28T02:43:41.186Z,99411.41
2022-09-28T02:46:18.622Z,99409.84
2022-09-28T02:49:17.496Z,99401.66
2022-09-28T02:51:59.477Z,99389.09
2022-09-28T02:54:57.472Z,99417.13
2022-09-28T02:57:36.995Z,99413.00
2022-09-28T03:00:10.200Z,99402.44
2022-09-28T03:02:48.775Z,99410.53
2022-09-28T03:05:20.505Z,99414.53
2022-09-28T03:07:58.068Z,99416.25
2022-09-28T03:10:31.233Z,99407.25
2022-09-28T03:12:59.823Z,99406.78
2022-09-28T03:15:30.536Z,99399.47
2022-09-28T03:17:58.849Z,99397.94
2022-09-28T03:20:27.433Z,99410.63
2022-09-28T03:23:20.169Z,99414.53
2022-09-28T03:25:43.263Z,99402.13
2022-09-28T03:28:10.922Z,99407.66
2022-09-28T03:30:40.162Z,99406.56
2022-09-28T03:33:07.836Z,99394.53
2022-09-28T03:35:35.824Z,99406.03
2022-09-28T03:38:03.536Z,99403.16
2022-09-28T03:40:31.239Z,99398.28
2022-09-28T03:42:59.947Z,99407.47
2022-09-28T03:45:27.771Z,99359.66
2022-09-28T03:47:56.899Z,99405.75
2022-09-28T03:50:24.670Z,99404.84
2022-09-28T03:52:52.454Z,99397.94
2022-09-28T03:55:20.159Z,99404.56
2022-09-28T03:57:54.542Z,99396.88
2022-09-28T04:00:23.040Z,99399.72
2022-09-28T04:02:50.819Z,99389.34
2022-09-28T04:05:19.850Z,99386.16
2022-09-28T04:07:47.590Z,99380.53
2022-09-28T04:10:15.244Z,99380.66
2022-09-28T04:12:42.916Z,99360.44
2022-09-28T04:15:11.422Z,99381.72
2022-09-28T04:17:40.343Z,99377.63
2022-09-28T04:20:09.000Z,99381.56
2022-09-28T04:22:38.324Z,99361.00
2022-09-28T04:25:06.853Z,99381.63
2022-09-28T04:27:48.532Z,99381.06
2022-09-28T04:30:16.896Z,99385.25
2022-09-28T04:32:44.601Z,99384.53
2022-09-28T04:35:13.463Z,99404.34
2022-09-28T04:37:42.659Z,99396.56
2022-09-28T04:40:11.262Z,99393.31
2022-09-28T04:42:38.935Z,99392.81
2022-09-28T04:45:08.054Z,99389.31
2022-09-28T04:47:35.815Z,99386.78
2022-09-28T04:50:03.481Z,99376.81
2022-09-28T04:52:31.172Z,99399.47
2022-09-28T04:55:00.424Z,99394.00
2022-09-28T04:57:28.082Z,99345.81
2022-09-28T04:59:55.809Z,99391.59
2022-09-28T05:02:24.706Z,99398.81
2022-09-28T05:04:53.368Z,99386.56
2022-09-28T05:07:21.044Z,99376.19
2022-09-28T05:09:48.716Z,99389.97
2022-09-28T05:12:17.962Z,99366.34
2022-09-28T05:14:47.785Z,99386.34
2022-09-28T05:17:15.660Z,99383.34
2022-09-28T05:19:43.431Z,99373.09
2022-09-28T05:22:14.750Z,99385.28
2022-09-28T05:24:42.815Z,99391.75
2022-09-28T05:27:10.543Z,99392.00
2022-09-28T05:29:39.574Z,99391.44
2022-09-28T05:32:07.351Z,99379.50
2022-09-28T05:34:35.101Z,99351.31
2022-09-28T05:37:02.810Z,99378.38
2022-09-28T05:39:30.491Z,99393.00
2022-09-28T05:41:58.782Z,99393.34
2022-09-28T05:44:26.500Z,99395.06
2022-09-28T05:46:55.554Z,99398.16
2022-09-28T05:49:23.396Z,99399.97
2022-09-28T05:51:51.105Z,99410.50
2022-09-28T05:54:18.880Z,99315.91
2022-09-28T05:56:46.683Z,99403.59
2022-09-28T05:59:14.507Z,99384.78
2022-09-28T06:01:42.314Z,99387.53
2022-09-28T06:04:11.478Z,99397.44
2022-09-28T06:06:39.339Z,99403.63
2022-09-28T06:09:07.070Z,99400.31
2022-09-28T06:11:34.776Z,99397.66
2022-09-28T06:14:02.555Z,99391.13
2022-09-28T06:16:30.661Z,99406.56
2022-09-28T06:18:58.431Z,99402.22
2022-09-28T06:21:27.599Z,99394.78
2022-09-28T06:23:55.290Z,99420.34
2022-09-28T06:26:23.045Z,99423.94
2022-09-28T06:28:50.758Z,99433.03
2022-09-28T06:31:19.814Z,99420.94
2022-09-28T06:33:49.973Z,99425.16
2022-09-28T06:36:18.217Z,99386.78
2022-09-28T06:38:47.603Z,99418.72
2022-09-28T06:41:15.851Z,99431.19
2022-09-28T06:43:43.572Z,99426.59
2022-09-28T06:46:11.479Z,99426.63
2022-09-28T06:48:39.224Z,99427.47
2022-09-28T06:51:07.520Z,99428.88
2022-09-28T06:53:35.830Z,99443.31
2022-09-28T06:56:04.961Z,99441.25
2022-09-28T06:58:32.598Z,99443.22
2022-09-28T07:01:00.484Z,99439.63
2022-09-28T07:03:28.716Z,99433.19
2022-09-28T07:05:57.348Z,99423.31
2022-09-28T07:08:28.649Z,99443.66
2022-09-28T07:10:57.158Z,99446.97
2022-09-28T07:16:16.208Z,99447.00
2022-09-28T07:18:43.894Z,99454.72
2022-09-28T07:21:22.462Z,99458.47
2022-09-28T07:23:54.277Z,99455.88
2022-09-28T07:26:24.479Z,99453.63
2022-09-28T07:28:55.802Z,99457.06
2022-09-28T07:31:25.241Z,99465.78
2022-09-28T07:33:54.051Z,99460.72
2022-09-28T07:36:22.723Z,99468.22
2022-09-28T07:38:50.745Z,99428.25
2022-09-28T07:41:22.747Z,99468.84
2022-09-28T07:43:50.883Z,99461.47
2022-09-28T07:46:21.278Z,99456.25
2022-09-28T07:48:49.585Z,99452.78
2022-09-28T07:51:19.781Z,99456.84
2022-09-28T07:53:48.076Z,99456.91
2022-09-28T07:56:17.449Z,99457.88
2022-09-28T07:58:45.151Z,99469.25
2022-09-28T08:01:14.920Z,99480.50
2022-09-28T08:03:47.170Z,99465.22
2022-09-28T08:06:17.079Z,99484.50
2022-09-28T08:08:45.247Z,99484.03
2022-09-28T08:11:14.118Z,99491.53
2022-09-28T08:13:42.006Z,99485.56
2022-09-28T08:16:09.709Z,99484.06
2022-09-28T08:18:37.678Z,99438.78
2022-09-28T08:21:25.243Z,99483.97
2022-09-28T08:23:53.179Z,99481.94
2022-09-28T08:26:20.947Z,99498.91
2022-09-28T08:28:48.585Z,99518.22
2022-09-28T08:31:16.330Z,99497.78
2022-09-28T08:33:44.039Z,99509.88
2022-09-28T08:36:13.052Z,99521.13
2022-09-28T08:38:43.504Z,99489.81
2022-09-28T08:41:19.886Z,99505.75
2022-09-28T08:44:06.918Z,99517.50
2022-09-28T08:46:37.867Z,99526.63
2022-09-28T08:49:24.995Z,99540.31
2022-09-28T08:52:00.499Z,99533.09
2022-09-28T08:54:38.947Z,99511.31
2022-09-28T08:57:13.509Z,99526.38
2022-09-28T08:59:49.237Z,99520.50
2022-09-28T09:02:22.336Z,99487.44
2022-09-28T09:04:51.941Z,99519.94
2022-09-28T09:07:32.285Z,99519.16
2022-09-28T09:10:11.566Z,99517.44
2022-09-28T09:12:49.671Z,99521.78
2022-09-28T09:15:35.288Z,99519.09
2022-09-28T09:18:20.218Z,99521.06
2022-09-28T09:20:53.327Z,99515.94
2022-09-28T09:23:35.248Z,99510.31
2022-09-28T09:26:15.271Z,99501.88
2022-09-28T09:29:01.726Z,99505.59
2022-09-28T09:31:43.115Z,99490.72
2022-09-28T09:34:35.156Z,99491.91
2022-09-28T09:37:23.285Z,99492.41
2022-09-28T09:40:05.053Z,99488.78
2022-09-28T09:42:49.057Z,99499.72
2022-09-28T09:45:44.069Z,99502.38
2022-09-28T09:48:19.014Z,99481.47
2022-09-28T09:50:50.672Z,99490.72
2022-09-28T09:53:25.379Z,99486.25
2022-09-28T09:55:59.633Z,99487.47
2022-09-28T09:58:31.446Z,99489.25
2022-09-28T10:01:10.251Z,99498.13
2022-09-28T10:03:44.309Z,99492.53
2022-09-28T10:06:16.246Z,99505.47
2022-09-28T10:08:50.032Z,99500.44
2022-09-28T10:11:24.262Z,99515.88
2022-09-28T10:13:52.012Z,99504.31
2022-09-28T10:16:20.636Z,99498.22
2022-09-28T10:18:49.749Z,99498.56
2022-09-28T10:21:21.494Z,99503.00
2022-09-28T10:23:56.106Z,99511.00
2022-09-28T10:26:31.129Z,99510.47
2022-09-28T10:29:02.973Z,99502.91
2022-09-28T10:31:42.145Z,99500.94
2022-09-28T10:34:14.213Z,99486.38
2022-09-28T10:36:55.162Z,99494.59
2022-09-28T10:39:34.296Z,99495.63
2022-09-28T10:42:07.274Z,99497.69
2022-09-28T10:44:39.471Z,99487.44
2022-09-28T10:47:10.061Z,99494.72
2022-09-28T10:49:47.012Z,99484.63
2022-09-28T10:52:35.707Z,99496.78
2022-09-28T10:55:04.220Z,99498.81
2022-09-28T10:57:37.719Z,99489.78
2022-09-28T11:00:08.016Z,99491.88
2022-09-28T11:02:37.713Z,99488.13
2022-09-28T11:05:07.576Z,99504.69
2022-09-28T11:07:46.442Z,99499.38
2022-09-28T11:10:21.921Z,99490.19
2022-09-28T11:12:51.903Z,99499.25
2022-09-28T11:15:22.727Z,99488.50
2022-09-28T11:17:50.555Z,99495.56
2022-09-28T11:20:35.965Z,99495.41
2022-09-28T11:23:19.256Z,99493.91
2022-09-28T11:25:57.907Z,99495.56
2022-09-28T11:28:31.489Z,99494.91
2022-09-28T11:31:00.287Z,99489.63
2022-09-28T11:33:33.516Z,99499.31
2022-09-28T11:36:21.305Z,99496.91
2022-09-28T11:39:00.312Z,99497.34
2022-09-28T11:41:43.330Z,99500.88
2022-09-28T11:44:36.247Z,99506.13
2022-09-28T11:47:18.404Z,99502.03
2022-09-28T11:49:52.313Z,99508.16
2022-09-28T11:52:27.477Z,99487.03
2022-09-28T11:55:00.892Z,99501.34
2022-09-28T11:57:36.342Z,99512.91
2022-09-28T12:00:09.983Z,99515.75
2022-09-28T12:02:43.673Z,99510.06
2022-09-28T12:05:20.890Z,99498.09
2022-09-28T12:07:55.231Z,99513.59
2022-09-28T12:10:33.032Z,99494.28
2022-09-28T12:13:04.887Z,99513.94
2022-09-28T12:16:11.521Z,99518.78
2022-09-28T12:18:42.729Z,99518.09
2022-09-28T12:21:27.812Z,99520.44
2022-09-28T12:24:01.789Z,99522.88
2022-09-28T12:26:37.989Z,99517.38
2022-09-28T12:29:12.930Z,99526.50
2022-09-28T12:31:56.472Z,99516.50
2022-09-28T12:34:24.334Z,99515.00
2022-09-28T12:37:09.389Z,99511.88
2022-09-28T12:40:03.562Z,99528.03
2022-09-28T12:42:55.506Z,99516.66
2022-09-28T12:45:42.869Z,99522.75
2022-09-28T12:48:37.038Z,99527.19
2022-09-28T12:51:17.478Z,99522.44
2022-09-28T12:54:01.734Z,99521.47
2022-09-28T12:56:37.895Z,99523.28
2022-09-28T12:59:16.272Z,99485.16
2022-09-28T13:02:28.625Z,99522.34
2022-09-28T13:05:20.651Z,99527.31
2022-09-28T13:07:55.943Z,99517.41
2022-09-28T13:10:32.710Z,99523.00
2022-09-28T13:13:21.756Z,99520.81
2022-09-28T13:15:55.788Z,99532.69
2022-09-28T13:18:30.261Z,99538.13
2022-09-28T13:21:12.191Z,99547.25
2022-09-28T13:23:43.699Z,99548.13
2022-09-28T13:26:25.260Z,99544.81
2022-09-28T13:28:57.976Z,99531.63
2022-09-28T13:31:32.459Z,99537.22
2022-09-28T13:34:04.530Z,99519.84
2022-09-28T13:36:39.524Z,99533.06
2022-09-28T13:39:36.523Z,99536.97
2022-09-28T13:42:05.773Z,99533.19
2022-09-28T13:44:59.478Z,99533.41
2022-09-28T13:47:53.786Z,99467.22
2022-09-28T13:50:34.367Z,99540.44
2022-09-28T13:53:12.836Z,99539.31
2022-09-28T13:55:54.774Z,99518.88
2022-09-28T13:58:26.642Z,99524.56
2022-09-28T14:01:00.724Z,99533.03
2022-09-28T14:03:43.261Z,99528.00
2022-09-28T14:06:23.640Z,99532.41
2022-09-28T14:09:24.889Z,99532.75
2022-09-28T14:12:01.549Z,99531.38
2022-09-28T14:14:48.541Z,99520.91
2022-09-28T14:17:59.075Z,99520.34
2022-09-28T14:20:31.396Z,99528.13
2022-09-28T14:23:44.326Z,99528.88
2022-09-28T14:26:43.989Z,99522.25
2022-09-28T14:29:36.181Z,99521.16
2022-09-28T14:32:06.891Z,99539.50
2022-09-28T14:34:37.718Z,99523.47
2022-09-28T14:37:37.915Z,99529.56
2022-09-28T14:40:34.866Z,99537.94
2022-09-28T14:43:27.295Z,99530.16
2022-09-28T14:46:30.413Z,99532.91
2022-09-28T14:49:01.752Z,99532.81
2022-09-28T14:52:07.369Z,99541.44
2022-09-28T14:54:43.125Z,99540.94
2022-09-28T14:57:17.923Z,99550.53
2022-09-28T14:59:48.351Z,99555.41
2022-09-28T15:02:23.067Z,99559.59
2022-09-28T15:04:54.962Z,99555.53
2022-09-28T15:07:25.367Z,99568.09
2022-09-28T15:09:54.354Z,99572.66
2022-09-28T15:12:25.388Z,99572.09
2022-09-28T15:14:57.359Z,99573.53
2022-09-28T15:17:28.299Z,99573.50
2022-09-28T15:20:23.268Z,99574.06
2022-09-28T15:22:56.593Z,99575.00
2022-09-28T15:25:27.819Z,99582.63
2022-09-28T15:27:57.965Z,99585.72
2022-09-28T15:30:29.450Z,99585.06
2022-09-28T15:33:18.824Z,99593.53
2022-09-28T15:35:48.107Z,99596.72
2022-09-28T15:38:18.190Z,99594.06
2022-09-28T15:40:47.618Z,99605.44
2022-09-28T15:43:26.904Z,99604.84
2022-09-28T15:46:03.443Z,99613.91
2022-09-28T15:48:37.719Z,99616.31
2022-09-28T15:51:10.904Z,99608.50
2022-09-28T15:53:44.145Z,99618.28
2022-09-28T15:56:12.359Z,99618.47
2022-09-28T15:58:40.864Z,99627.34
2022-09-28T16:01:27.714Z,99587.06
2022-09-28T16:03:55.738Z,99630.53
2022-09-28T16:06:24.169Z,99620.00
2022-09-28T16:08:51.883Z,99632.28
2022-09-28T16:11:24.205Z,99594.50
2022-09-28T16:14:01.847Z,99637.66
2022-09-28T16:16:35.137Z,99633.41
2022-09-28T16:19:04.181Z,99647.09
2022-09-28T16:21:44.519Z,99631.13
2022-09-28T16:24:22.151Z,99648.25
2022-09-28T16:26:56.307Z,99644.91
2022-09-28T16:29:35.742Z,99654.75
2022-09-28T16:32:38.403Z,99648.50
2022-09-28T16:35:19.622Z,99651.44
2022-09-28T16:37:49.223Z,99653.72
2022-09-28T16:40:17.176Z,99645.31
2022-09-28T16:42:49.098Z,99653.06
2022-09-28T16:45:20.801Z,99658.28
2022-09-28T16:47:52.337Z,99659.13
2022-09-28T16:50:21.329Z,99645.59
2022-09-28T16:53:09.270Z,99660.44
2022-09-28T16:55:41.183Z,99667.56
2022-09-28T16:58:09.758Z,99670.28
2022-09-28T17:00:37.579Z,99665.72
2022-09-28T17:03:14.171Z,99670.63
2022-09-28T17:05:42.193Z,99675.28
2022-09-28T17:08:14.701Z,99681.91
2022-09-28T17:11:09.858Z,99679.47
2022-09-28T17:13:35.253Z,99683.00
2022-09-28T17:16:06.273Z,99688.16
2022-09-28T17:18:37.500Z,99687.91
2022-09-28T17:21:06.595Z,99660.06
2022-09-28T17:23:34.567Z,99692.69
2022-09-28T17:26:03.031Z,99691.72
2022-09-28T17:28:33.781Z,99673.00
2022-09-28T17:31:01.631Z,99703.19
2022-09-28T17:33:29.757Z,99704.53
2022-09-28T17:36:01.490Z,99705.63
2022-09-28T17:38:29.409Z,99707.41
2022-09-28T17:40:57.283Z,99707.91
2022-09-28T17:43:25.113Z,99707.50
2022-09-28T17:45:53.006Z,99712.97
2022-09-28T17:48:22.857Z,99718.28
2022-09-28T17:50:51.230Z,99717.91
2022-09-28T17:53:20.347Z,99725.94
2022-09-28T17:55:48.106Z,99725.00
2022-09-28T17:58:18.649Z,99733.97
2022-09-28T18:00:47.801Z,99724.25
2022-09-28T18:03:18.385Z,99722.44
2022-09-28T18:05:48.267Z,99672.03
2022-09-28T18:08:19.473Z,99735.66
2022-09-28T18:10:48.618Z,99736.88
2022-09-28T18:13:17.403Z,99747.16
2022-09-28T18:15:45.166Z,99737.41
2022-09-28T18:18:12.986Z,99730.25
2022-09-28T18:20:41.929Z,99743.41
2022-09-28T18:23:09.588Z,99735.66
2022-09-28T18:25:40.773Z,99747.03
2022-09-28T18:28:10.090Z,99734.94
2022-09-28T18:30:40.705Z,99741.75
2022-09-28T18:33:09.341Z,99750.47
2022-09-28T18:35:37.837Z,99750.50
2022-09-28T18:38:06.668Z,99752.59
2022-09-28T18:40:34.815Z,99759.13
2022-09-28T18:43:02.731Z,99761.31
2022-09-28T18:45:31.875Z,99761.31
2022-09-28T18:47:59.669Z,99756.16
2022-09-28T18:50:27.475Z,99765.47
2022-09-28T18:53:11.261Z,99771.81
2022-09-28T18:55:39.858Z,99770.16
2022-09-28T18:58:08.215Z,99769.59
2022-09-28T19:00:38.932Z,99776.81
2022-09-28T19:03:07.072Z,99768.50
2022-09-28T19:05:35.075Z,99778.00
2022-09-28T19:08:03.351Z,99786.69
2022-09-28T19:10:31.219Z,99773.06
2022-09-28T19:12:58.857Z,99787.09
2022-09-28T19:15:26.771Z,99791.56
2022-09-28T19:17:57.069Z,99790.88
2022-09-28T19:20:24.742Z,99784.06
2022-09-28T19:22:52.428Z,99781.84
2022-09-28T19:25:20.099Z,99785.69
2022-09-28T19:27:48.790Z,99797.50
2022-09-28T19:30:16.595Z,99795.28
2022-09-28T19:32:44.511Z,99798.31
2022-09-28T19:35:13.670Z,99808.19
2022-09-28T19:37:42.215Z,99806.47
2022-09-28T19:40:10.456Z,99810.53
2022-09-28T19:42:39.614Z,99810.03
2022-09-28T19:45:10.901Z,99811.31
2022-09-28T19:47:39.025Z,99813.09
2022-09-28T19:50:07.555Z,99817.22
2022-09-28T19:52:36.679Z,99824.72
2022-09-28T19:55:04.465Z,99821.53
2022-09-28T19:57:33.652Z,99826.78
2022-09-28T20:00:03.545Z,99823.28
2022-09-28T20:02:31.744Z,99826.47
2022-09-28T20:04:59.609Z,99832.19
2022-09-28T20:07:27.502Z,99832.31
2022-09-28T20:09:56.582Z,99832.59
2022-09-28T20:12:24.335Z,99838.63
2022-09-28T20:14:52.083Z,99831.44
2022-09-28T20:17:21.677Z,99808.47
2022-09-28T20:19:51.708Z,99833.34
2022-09-28T20:22:20.082Z,99839.13
2022-09-28T20:24:47.993Z,99824.00
2022-09-28T20:27:17.128Z,99833.03
2022-09-28T20:29:44.809Z,99834.34
2022-09-28T20:32:12.583Z,99840.94
2022-09-28T20:34:40.373Z,99844.22
2022-09-28T20:37:08.112Z,99842.22
2022-09-28T20:39:35.924Z,99845.38
2022-09-28T20:42:03.707Z,99836.22
2022-09-28T20:44:32.804Z,99846.31
2022-09-28T20:47:01.117Z,99819.78
2022-09-28T20:49:29.031Z,99840.41
2022-09-28T20:51:56.933Z,99845.47
2022-09-28T20:54:25.572Z,99847.63
2022-09-28T20:56:53.484Z,99837.50
2022-09-28T20:59:22.946Z,99851.25
2022-09-28T21:01:52.335Z,99838.13
2022-09-28T21:04:20.570Z,99836.75
2022-09-28T21:06:48.612Z,99846.97
2022-09-28T21:09:16.404Z,99844.72
2022-09-28T21:11:44.111Z,99836.56
2022-09-28T21:14:11.759Z,99844.84
2022-09-28T21:16:39.589Z,99848.91
2022-09-28T21:19:08.635Z,99841.22
2022-09-28T21:21:36.354Z,99855.63
2022-09-28T21:24:04.441Z,99852.47
2022-09-28T21:26:33.026Z,99857.00
2022-09-28T21:29:02.838Z,99857.84
2022-09-28T21:31:32.566Z,99851.94
2022-09-28T21:34:01.072Z,99854.72
2022-09-28T21:36:30.215Z,99857.34
2022-09-28T21:38:58.329Z,99861.63
2022-09-28T21:41:26.739Z,99864.22
2022-09-28T21:43:54.516Z,99871.00
2022-09-28T21:46:22.555Z,99865.59
2022-09-28T21:48:53.370Z,99875.00
2022-09-28T21:51:22.026Z,99875.81
2022-09-28T21:53:51.197Z,99854.88
2022-09-28T21:56:18.895Z,99876.38
2022-09-28T21:58:47.086Z,99879.84
2022-09-28T22:01:16.778Z,99874.44
2022-09-28T22:03:46.689Z,99880.69
2022-09-28T22:06:15.527Z,99889.94
2022-09-28T22:08:43.566Z,99882.84
2022-09-28T22:11:14.800Z,99882.03
2022-09-28T22:13:44.656Z,99877.25
2022-09-28T22:16:13.327Z,99876.00
2022-09-28T22:18:41.732Z,99824.03
2022-09-28T22:21:13.624Z,99878.84
2022-09-28T22:23:42.095Z,99879.19
2022-09-28T22:26:13.260Z,99888.19
2022-09-28T22:28:46.288Z,99833.16
2022-09-28T22:31:14.927Z,99895.94
2022-09-28T22:33:42.868Z,99882.72
2022-09-28T22:36:10.666Z,99882.91
2022-09-28T22:38:39.429Z,99879.81
2022-09-28T22:41:07.311Z,99878.72
2022-09-28T22:43:36.635Z,99892.97
2022-09-28T22:46:06.011Z,99895.72
2022-09-28T22:48:34.754Z,99893.91
2022-09-28T22:51:03.361Z,99889.41
2022-09-28T22:53:31.434Z,99899.44
2022-09-28T22:56:01.426Z,99844.84
2022-09-28T22:58:29.199Z,99899.81
2022-09-28T23:00:58.349Z,99900.38
2022-09-28T23:03:25.977Z,99893.19
2022-09-28T23:05:54.294Z,99889.88
2022-09-28T23:08:22.180Z,99898.69
2022-09-28T23:10:50.260Z,99899.16
2022-09-28T23:13:17.989Z,99896.97
2022-09-28T23:15:55.045Z,99901.38
2022-09-28T23:18:24.292Z,99901.59
2022-09-28T23:20:55.844Z,99882.91
2022-09-28T23:23:23.984Z,99889.84
2022-09-28T23:25:51.858Z,99885.59
2022-09-28T23:28:20.054Z,99851.50
2022-09-28T23:30:48.261Z,99890.50
2022-09-28T23:33:16.693Z,99882.31
2022-09-28T23:35:46.079Z,99894.09
2022-09-28T23:38:14.960Z,99882.63
2022-09-28T23:40:42.800Z,99884.31
2022-09-28T23:43:10.551Z,99886.00
2022-09-28T23:45:38.205Z,99889.88
2022-09-28T23:48:06.284Z,99877.59
2022-09-28T23:50:34.089Z,99886.03
2022-09-28T23:53:03.215Z,99891.44
2022-09-28T23:55:30.896Z,99886.84
2022-09-28T23:57:58.999Z,99896.06
